Redmond, OR

12:58 PM PDT on August 21, 2014 (GMT -0700)
Roberts Field Airport | Change Station
CLOSE
Current Station
Airport
Location: Redmond,
Elevation: 3077 ft
Nearby Weather Stations

Elev 3077 ft 44.25 °N, 121.15 °W | Updated 1 hour ago

Clear
Clear
73 °F
Feels Like 73 °F
N
5
Wind Variable Wind from Variable

Today
High -- | Low -- °F
--% Chance of Precip.
Yesterday
High -- | Low -- °F
Precip. -- in
6:14 AM 7:59 PM
Waning Crescent, 12% visible
Pressure 29.99 in
Visibility 10.0 miles
Clouds Clear
Dew Point 29 °F
Humidity 20%
Rainfall 0.00 in
Snow Depth Not available.
UV 9 out of 12
Pollen 3.50 out of 12
Air Quality Not available.
Flu Activity Not available.
METAR KRDM 211856Z VRB04KT 10SM CLR 23/M02 A3003 RMK AO2 SLP154 T02281017

More Conditions Fewer Conditions

Pressure 29.99 in
Visibility 10.0 miles
Clouds Clear
Dew Point 29 °F
Humidity 20%
Rainfall 0.00 in
Snow Depth Not available.
UV 9 out of 12
Pollen 3.50 out of 12
Air Quality Not available.
Flu Activity Not available.
METAR KRDM 211856Z VRB04KT 10SM CLR 23/M02 A3003 RMK AO2 SLP154 T02281017

More Conditions Fewer Conditions

10-Day Weather Forecast

Almanac

Astronomy

Aug. 21, 2014 Rise Set
Actual Time 6:14 AM PDT 7:59 PM PDT
Civil Twilight 5:44 AM PDT 8:30 PM PDT
Nautical Twilight 5:06 AM PDT 9:07 PM PDT
Astronomical Twilight 4:25 AM PDT 9:48 PM PDT
Moon 2:46 AM PDT 5:35 PM PDT
Length of Visible Light 14h 46m
Length of Day
13h 44m
Tomorrow will be 2m 50s shorter.
Waning Crescent, 12% of the Moon is Illuminated
Today
Waning Crescent
Aug 25
New
Sep 2
First Quarter
Sep 8
Full
Sep 15
Last Quarter

Today's Extremes

State Highs State Lows

Community

WunderPhotos

Upload Photos

1,746,010 photos uploaded!

WunderBlogs® & News

Nearby

Snow Depth

Station Depth Elevation
Hogg Pass 0 in 4760 ft
Santiam Junction 0 in 3750 ft
Irish Taylor 0 in 5500 ft
Daly Lake 0 in 3600 ft
Clackamas Lake 0 in 3400 ft

Earthquake Activity

City Distance Mag. Time & Date
No recent earthquake activity has been reported nearby.
Minimum magnitude displayed is 2.5.

Coastal Water Temperatures

Place Temperature
No Stations Reporting

Nearby Weather Stations